createdAt,value
2023-05-05T00:01:34.912Z,5.93
2023-05-05T00:04:01.600Z,9.95
2023-05-05T00:06:28.681Z,7.28
2023-05-05T00:08:56.136Z,9.60
2023-05-05T00:11:22.683Z,6.93
2023-05-05T00:13:50.365Z,7.43
2023-05-05T00:16:17.575Z,7.45
2023-05-05T00:18:44.634Z,8.20
2023-05-05T00:21:11.108Z,10.93
2023-05-05T00:23:37.577Z,7.90
2023-05-05T00:26:04.027Z,9.20
2023-05-05T00:28:31.329Z,13.23
2023-05-05T00:30:57.893Z,5.60
2023-05-05T00:33:24.488Z,8.27
2023-05-05T00:35:51.723Z,7.17
2023-05-05T00:38:18.267Z,6.00
2023-05-05T00:40:44.720Z,10.63
2023-05-05T00:43:12.961Z,5.07
2023-05-05T00:45:42.743Z,7.10
2023-05-05T00:48:10.165Z,6.53
2023-05-05T00:50:37.420Z,7.95
2023-05-05T00:53:06.254Z,9.07
2023-05-05T00:55:35.406Z,10.95
2023-05-05T00:58:04.048Z,8.45
2023-05-05T01:00:31.458Z,5.77
2023-05-05T01:02:58.868Z,6.85
2023-05-05T01:05:27.757Z,7.28
2023-05-05T01:08:06.356Z,5.72
2023-05-05T01:10:37.072Z,4.93
2023-05-05T01:13:32.031Z,4.80
2023-05-05T01:16:08.383Z,6.38
2023-05-05T01:19:00.811Z,7.07
2023-05-05T01:21:40.299Z,5.72
2023-05-05T01:24:40.720Z,6.38
2023-05-05T01:27:28.370Z,10.17
2023-05-05T01:30:19.454Z,7.43
2023-05-05T01:32:55.172Z,18.45
2023-05-05T01:35:29.858Z,8.32
2023-05-05T01:38:05.790Z,6.05
2023-05-05T01:40:39.051Z,12.23
2023-05-05T01:43:08.108Z,7.88
2023-05-05T01:45:39.349Z,7.85
2023-05-05T01:48:08.059Z,6.68
2023-05-05T01:50:36.816Z,6.97
2023-05-05T01:53:05.085Z,8.63
2023-05-05T01:55:33.460Z,8.15
2023-05-05T01:58:02.747Z,6.18
2023-05-05T02:00:30.427Z,8.27
2023-05-05T02:02:59.675Z,5.82
2023-05-05T02:05:27.603Z,7.20
2023-05-05T02:07:58.884Z,5.18
2023-05-05T02:10:27.617Z,5.22
2023-05-05T02:12:54.220Z,6.78
2023-05-05T02:15:21.955Z,5.78
2023-05-05T02:17:52.301Z,4.57
2023-05-05T02:20:20.562Z,6.03
2023-05-05T02:22:47.397Z,6.32
2023-05-05T02:25:14.535Z,5.85
2023-05-05T02:27:43.736Z,8.73
2023-05-05T02:30:14.315Z,6.43
2023-05-05T02:32:47.680Z,8.38
2023-05-05T02:35:17.296Z,5.60
2023-05-05T02:37:48.190Z,5.18
2023-05-05T02:40:19.914Z,5.55
2023-05-05T02:42:47.804Z,10.23
2023-05-05T02:45:20.028Z,6.18
2023-05-05T02:47:46.603Z,5.45
2023-05-05T02:50:13.160Z,6.40
2023-05-05T02:52:40.563Z,4.43
2023-05-05T02:55:07.914Z,5.00
2023-05-05T02:57:59.211Z,4.28
2023-05-05T03:00:41.230Z,4.00
2023-05-05T03:03:17.715Z,4.43
2023-05-05T03:06:03.023Z,5.03
2023-05-05T03:08:41.604Z,4.80
2023-05-05T03:11:35.553Z,4.97
2023-05-05T03:14:13.411Z,6.10
2023-05-05T03:16:43.509Z,5.10
2023-05-05T03:19:12.233Z,14.15
2023-05-05T03:21:40.820Z,3.73
2023-05-05T03:24:17.560Z,4.00
2023-05-05T03:26:45.603Z,4.60
2023-05-05T03:29:13.827Z,4.20
2023-05-05T03:31:40.874Z,3.80
2023-05-05T03:34:08.234Z,3.23
2023-05-05T03:36:35.864Z,2.50
2023-05-05T03:39:02.455Z,4.30
2023-05-05T03:41:28.987Z,2.55
2023-05-05T03:43:56.044Z,5.53
2023-05-05T03:46:23.564Z,5.07
2023-05-05T03:48:52.147Z,3.90
2023-05-05T03:51:18.724Z,5.03
2023-05-05T03:53:45.204Z,3.92
2023-05-05T03:56:11.888Z,4.72
2023-05-05T03:58:39.037Z,4.23
2023-05-05T04:01:06.562Z,5.35
2023-05-05T04:03:35.135Z,7.15
2023-05-05T04:06:02.574Z,4.97
2023-05-05T04:08:29.153Z,4.18
2023-05-05T04:10:57.620Z,5.07
2023-05-05T04:13:25.075Z,4.28
2023-05-05T04:15:54.917Z,4.75
2023-05-05T04:18:22.469Z,7.57
2023-05-05T04:20:50.950Z,6.45
2023-05-05T04:23:17.513Z,5.57
2023-05-05T04:25:45.104Z,4.35
2023-05-05T04:28:11.900Z,5.28
2023-05-05T04:30:39.073Z,5.28
2023-05-05T04:33:05.480Z,4.78
2023-05-05T04:35:31.968Z,5.27
2023-05-05T04:37:58.409Z,7.40
2023-05-05T04:40:26.237Z,6.60
2023-05-05T04:42:52.833Z,8.18
2023-05-05T04:45:26.411Z,4.28
2023-05-05T04:47:52.822Z,4.13
2023-05-05T04:50:19.404Z,6.53
2023-05-05T04:52:45.907Z,6.72
2023-05-05T04:55:12.593Z,4.22
2023-05-05T04:57:39.240Z,7.13
2023-05-05T05:00:06.717Z,4.13
2023-05-05T05:02:33.426Z,4.38
2023-05-05T05:05:00.057Z,5.13
2023-05-05T05:07:26.724Z,6.47
2023-05-05T05:09:53.386Z,4.82
2023-05-05T05:12:19.930Z,5.50
2023-05-05T05:14:46.460Z,7.00
2023-05-05T05:17:13.110Z,3.95
2023-05-05T05:19:39.644Z,5.00
2023-05-05T05:22:06.269Z,7.07
2023-05-05T05:24:34.741Z,5.47
2023-05-05T05:27:01.365Z,5.40
2023-05-05T05:29:27.815Z,6.65
2023-05-05T05:31:54.410Z,9.93
2023-05-05T05:34:20.883Z,9.25
2023-05-05T05:36:47.338Z,5.10
2023-05-05T05:39:13.769Z,8.18
2023-05-05T05:41:40.364Z,8.45
2023-05-05T05:44:06.849Z,7.72
2023-05-05T05:46:33.454Z,5.53
2023-05-05T05:49:00.063Z,8.93
2023-05-05T05:51:26.571Z,8.07
2023-05-05T05:53:53.196Z,5.85
2023-05-05T05:56:19.839Z,6.93
2023-05-05T05:58:48.519Z,7.55
2023-05-05T06:01:15.950Z,7.70
2023-05-05T06:03:42.750Z,5.85
2023-05-05T06:06:09.338Z,10.85
2023-05-05T06:08:35.903Z,8.68
2023-05-05T06:11:02.446Z,9.32
2023-05-05T06:13:28.969Z,8.47
2023-05-05T06:15:55.632Z,8.50
2023-05-05T06:18:23.060Z,6.68
2023-05-05T06:20:50.978Z,7.60
2023-05-05T06:23:17.526Z,7.18
2023-05-05T06:25:44.700Z,9.37
2023-05-05T06:28:11.212Z,6.35
2023-05-05T06:30:37.659Z,8.43
2023-05-05T06:33:04.105Z,5.90
2023-05-05T06:35:30.636Z,6.00
2023-05-05T06:37:57.115Z,7.20
2023-05-05T06:40:23.807Z,7.30
2023-05-05T06:42:50.483Z,7.00
2023-05-05T06:45:16.957Z,8.15
2023-05-05T06:47:44.278Z,6.30
2023-05-05T06:50:11.278Z,6.07
2023-05-05T06:52:38.028Z,6.25
2023-05-05T06:55:05.920Z,8.18
2023-05-05T06:57:32.546Z,5.75
2023-05-05T06:59:59.835Z,6.35
2023-05-05T07:02:27.062Z,6.90
2023-05-05T07:04:55.347Z,12.75
2023-05-05T07:07:22.081Z,8.32
2023-05-05T07:09:48.669Z,10.35
2023-05-05T07:12:15.285Z,8.52
2023-05-05T07:14:41.913Z,7.27
2023-05-05T07:17:08.385Z,5.72
2023-05-05T07:19:35.577Z,5.25
2023-05-05T07:22:02.097Z,5.43
2023-05-05T07:24:29.506Z,8.20
2023-05-05T07:26:56.206Z,5.30
2023-05-05T07:29:22.658Z,4.95
2023-05-05T07:31:49.323Z,6.82
2023-05-05T07:34:16.477Z,5.35
2023-05-05T07:36:44.353Z,8.07
2023-05-05T07:39:11.157Z,4.60
2023-05-05T07:41:38.651Z,4.55
2023-05-05T07:44:05.342Z,4.97
2023-05-05T07:46:31.979Z,5.25
2023-05-05T07:48:58.613Z,6.30
2023-05-05T07:51:25.159Z,3.37
2023-05-05T07:53:51.947Z,2.97
2023-05-05T07:56:19.855Z,3.75
2023-05-05T07:58:48.555Z,3.25
2023-05-05T08:01:14.994Z,3.30
2023-05-05T08:03:41.744Z,4.53
2023-05-05T08:06:09.538Z,5.20
2023-05-05T08:08:36.590Z,3.80
2023-05-05T08:11:04.211Z,3.55
2023-05-05T08:13:30.798Z,3.92
2023-05-05T08:15:57.426Z,8.93
2023-05-05T08:18:24.558Z,5.20
2023-05-05T08:20:52.917Z,5.40
2023-05-05T08:23:19.350Z,4.75
2023-05-05T08:25:45.918Z,5.50
2023-05-05T08:28:13.835Z,3.97
2023-05-05T08:30:41.121Z,3.30
2023-05-05T08:33:07.548Z,6.45
2023-05-05T08:35:34.025Z,2.90
2023-05-05T08:38:01.419Z,5.40
2023-05-05T08:40:36.389Z,2.43
2023-05-05T08:43:03.651Z,4.07
2023-05-05T08:45:30.482Z,2.42
2023-05-05T08:47:58.268Z,2.97
2023-05-05T08:50:27.950Z,3.35
2023-05-05T08:53:05.318Z,2.60
2023-05-05T08:55:35.697Z,1.60
2023-05-05T08:58:04.954Z,3.13
2023-05-05T09:00:31.796Z,3.22
2023-05-05T09:02:59.953Z,2.47
2023-05-05T09:05:27.196Z,4.17
2023-05-05T09:07:53.903Z,2.40
2023-05-05T09:10:20.665Z,1.85
2023-05-05T09:12:47.376Z,1.55
2023-05-05T09:15:15.162Z,1.50
2023-05-05T09:17:42.621Z,5.50
2023-05-05T09:20:11.144Z,3.55
2023-05-05T09:22:39.588Z,3.40
2023-05-05T09:25:08.604Z,4.93
2023-05-05T09:27:41.176Z,2.95
2023-05-05T09:30:09.170Z,1.83
2023-05-05T09:32:45.828Z,3.67
2023-05-05T09:35:12.455Z,7.53
2023-05-05T09:37:39.161Z,3.65
2023-05-05T09:40:07.350Z,3.80
2023-05-05T09:42:39.777Z,2.03
2023-05-05T09:45:18.479Z,3.22
2023-05-05T09:47:46.547Z,3.47
2023-05-05T09:50:18.822Z,3.35
2023-05-05T09:53:02.238Z,3.55
2023-05-05T09:55:30.795Z,5.43
2023-05-05T09:58:17.484Z,5.15
2023-05-05T10:00:44.014Z,3.92
2023-05-05T10:03:10.638Z,5.47
2023-05-05T10:05:54.551Z,5.72
2023-05-05T10:08:24.980Z,6.40
2023-05-05T10:10:57.678Z,4.00
2023-05-05T10:13:25.260Z,5.07
2023-05-05T10:15:54.059Z,3.35
2023-05-05T10:18:28.651Z,2.15
2023-05-05T10:21:03.203Z,9.80
2023-05-05T10:24:09.398Z,6.32
2023-05-05T10:26:40.936Z,4.28
2023-05-05T10:29:17.218Z,4.75
2023-05-05T10:31:54.098Z,3.78
2023-05-05T10:34:29.758Z,3.17
2023-05-05T10:37:00.228Z,2.05
2023-05-05T10:39:27.685Z,2.35
2023-05-05T10:41:54.334Z,2.85
2023-05-05T10:44:23.016Z,2.08
2023-05-05T10:46:50.340Z,2.97
2023-05-05T10:49:22.130Z,4.03
2023-05-05T10:52:13.995Z,2.40
2023-05-05T10:55:22.495Z,4.57
2023-05-05T10:57:53.572Z,1.98
2023-05-05T11:00:53.696Z,3.50
2023-05-05T11:03:22.156Z,2.92
2023-05-05T11:06:04.245Z,3.47
2023-05-05T11:08:32.632Z,6.50
2023-05-05T11:11:00.895Z,5.15
2023-05-05T11:13:27.935Z,1.23
2023-05-05T11:15:56.212Z,3.95
2023-05-05T11:18:45.642Z,2.70
2023-05-05T11:21:17.766Z,5.93
2023-05-05T11:23:51.890Z,2.83
2023-05-05T11:26:51.632Z,5.47
2023-05-05T11:29:18.415Z,3.72
2023-05-05T11:31:47.834Z,2.47
2023-05-05T11:34:26.779Z,4.70
2023-05-05T11:36:58.119Z,4.60
2023-05-05T11:40:15.734Z,8.37
2023-05-05T11:42:42.288Z,6.05
2023-05-05T11:45:23.525Z,5.40
2023-05-05T11:47:51.127Z,5.95
2023-05-05T11:50:20.070Z,13.48
2023-05-05T11:52:47.430Z,4.97
2023-05-05T11:55:21.976Z,8.10
2023-05-05T11:57:48.872Z,6.18
2023-05-05T12:00:16.037Z,4.25
2023-05-05T12:02:43.725Z,7.85
2023-05-05T12:05:11.062Z,4.10
2023-05-05T12:07:38.507Z,4.90
2023-05-05T12:10:05.955Z,3.65
2023-05-05T12:12:40.139Z,5.50
2023-05-05T12:15:09.182Z,2.38
2023-05-05T12:17:38.736Z,2.47
2023-05-05T12:20:05.788Z,5.18
2023-05-05T12:22:34.651Z,4.38
2023-05-05T12:25:04.881Z,3.53
2023-05-05T12:27:32.736Z,4.35
2023-05-05T12:30:14.987Z,5.50
2023-05-05T12:33:05.522Z,2.25
2023-05-05T12:35:33.872Z,2.70
2023-05-05T12:38:02.574Z,3.83
2023-05-05T12:40:49.673Z,2.20
2023-05-05T12:43:27.789Z,2.80
2023-05-05T12:46:02.591Z,7.28
2023-05-05T12:48:29.990Z,4.30
2023-05-05T12:51:17.910Z,4.22
2023-05-05T12:53:47.098Z,3.60
2023-05-05T12:56:34.165Z,5.17
2023-05-05T12:59:07.702Z,3.78
2023-05-05T13:01:36.970Z,3.72
2023-05-05T13:04:19.208Z,5.10
2023-05-05T13:06:49.241Z,5.65
2023-05-05T13:09:30.362Z,2.97
2023-05-05T13:11:56.999Z,4.85
2023-05-05T13:14:23.726Z,3.97
2023-05-05T13:16:50.900Z,3.40
2023-05-05T13:19:17.452Z,4.80
2023-05-05T13:21:44.909Z,3.33
2023-05-05T13:24:26.134Z,7.28
2023-05-05T13:26:58.752Z,3.03
2023-05-05T13:29:30.374Z,3.85
2023-05-05T13:31:58.078Z,2.72
2023-05-05T13:34:24.713Z,3.80
2023-05-05T13:36:51.968Z,5.75
2023-05-05T13:39:18.833Z,4.13
2023-05-05T13:41:46.410Z,3.38
2023-05-05T13:44:13.797Z,3.25
2023-05-05T13:46:42.560Z,2.00
2023-05-05T13:49:11.149Z,2.92
2023-05-05T13:51:39.190Z,2.33
2023-05-05T13:54:06.856Z,4.22
2023-05-05T13:56:34.761Z,2.65
2023-05-05T13:59:02.451Z,1.73
2023-05-05T14:01:30.169Z,3.22
2023-05-05T14:03:57.643Z,4.15
2023-05-05T14:06:25.942Z,1.95
2023-05-05T14:08:54.403Z,1.60
2023-05-05T14:11:21.348Z,2.20
2023-05-05T14:13:48.847Z,0.80
2023-05-05T14:16:16.343Z,2.85
2023-05-05T14:18:42.944Z,1.13
2023-05-05T14:21:09.665Z,2.35
2023-05-05T14:23:36.338Z,2.23
2023-05-05T14:26:03.774Z,2.70
2023-05-05T14:28:30.686Z,2.13
2023-05-05T14:30:57.917Z,2.20
2023-05-05T14:33:24.391Z,1.55
2023-05-05T14:35:51.193Z,1.20
2023-05-05T14:38:18.444Z,1.17
2023-05-05T14:40:47.806Z,2.47
2023-05-05T14:43:15.237Z,1.20
2023-05-05T14:45:45.053Z,2.28
2023-05-05T14:48:11.713Z,2.97
2023-05-05T14:50:40.040Z,2.05
2023-05-05T14:53:06.563Z,0.70
2023-05-05T14:55:33.047Z,1.33
2023-05-05T14:57:59.728Z,1.65
2023-05-05T15:00:26.837Z,1.23
2023-05-05T15:02:53.540Z,2.25
2023-05-05T15:05:20.737Z,1.38
2023-05-05T15:07:47.365Z,4.97
2023-05-05T15:10:13.919Z,0.80
2023-05-05T15:12:40.650Z,1.17
2023-05-05T15:15:08.759Z,1.50
2023-05-05T15:17:38.723Z,1.10
2023-05-05T15:20:06.718Z,3.55
2023-05-05T15:22:33.322Z,0.82
2023-05-05T15:25:00.214Z,1.27
2023-05-05T15:27:26.868Z,1.27
2023-05-05T15:29:53.470Z,0.88
2023-05-05T15:32:19.971Z,0.93
2023-05-05T15:34:48.403Z,1.30
2023-05-05T15:37:16.765Z,1.07
2023-05-05T15:39:43.286Z,1.10
2023-05-05T15:42:10.225Z,1.42
2023-05-05T15:44:36.742Z,0.70
2023-05-05T15:47:03.300Z,0.90
2023-05-05T15:49:29.873Z,0.73
2023-05-05T15:51:56.353Z,1.20
2023-05-05T15:54:22.848Z,1.00
2023-05-05T15:56:50.376Z,1.85
2023-05-05T15:59:16.969Z,0.60
2023-05-05T16:01:43.510Z,2.83
2023-05-05T16:04:10.043Z,1.35
2023-05-05T16:06:36.539Z,1.08
2023-05-05T16:09:03.793Z,1.10
2023-05-05T16:11:30.812Z,1.88
2023-05-05T16:13:57.313Z,1.60
2023-05-05T16:16:23.792Z,0.57
2023-05-05T16:18:51.576Z,1.35
2023-05-05T16:21:18.072Z,1.95
2023-05-05T16:23:44.616Z,2.15
2023-05-05T16:26:11.136Z,1.93
2023-05-05T16:28:38.047Z,3.83
2023-05-05T16:31:04.669Z,1.73
2023-05-05T16:33:31.265Z,1.77
2023-05-05T16:35:57.757Z,1.67
2023-05-05T16:38:24.232Z,0.67
2023-05-05T16:40:50.825Z,2.33
2023-05-05T16:43:17.358Z,1.23
2023-05-05T16:45:43.873Z,0.60
2023-05-05T16:48:10.428Z,1.05
2023-05-05T16:50:36.964Z,0.90
2023-05-05T16:53:03.508Z,1.27
2023-05-05T16:55:30.018Z,1.00
2023-05-05T16:57:56.464Z,0.93
2023-05-05T17:00:22.955Z,0.70
2023-05-05T17:02:50.188Z,1.90
2023-05-05T17:05:17.610Z,1.83
2023-05-05T17:07:44.614Z,0.55
2023-05-05T17:10:11.176Z,1.40
2023-05-05T17:12:37.670Z,1.75
2023-05-05T17:15:04.580Z,0.70
2023-05-05T17:17:31.128Z,1.73
2023-05-05T17:19:57.698Z,0.52
2023-05-05T17:22:24.194Z,0.65
2023-05-05T17:24:50.928Z,1.95
2023-05-05T17:27:18.439Z,0.40
2023-05-05T17:29:45.012Z,5.05
2023-05-05T17:32:11.890Z,1.08
2023-05-05T17:34:38.392Z,2.17
2023-05-05T17:37:05.013Z,0.50
2023-05-05T17:39:32.758Z,2.20
2023-05-05T17:41:59.198Z,0.95
2023-05-05T17:44:25.643Z,0.90
2023-05-05T17:46:52.384Z,1.15
2023-05-05T17:49:18.816Z,0.68
2023-05-05T17:51:45.563Z,1.47
2023-05-05T17:56:39.330Z,0.75
2023-05-05T17:59:05.743Z,2.17
2023-05-05T18:01:32.293Z,1.08
2023-05-05T18:03:58.886Z,1.17
2023-05-05T18:06:25.795Z,1.30
2023-05-05T18:08:52.811Z,1.02
2023-05-05T18:11:21.148Z,0.88
2023-05-05T18:13:47.701Z,0.60
2023-05-05T18:16:14.338Z,1.10
2023-05-05T18:18:41.278Z,2.35
2023-05-05T18:21:12.016Z,4.82
2023-05-05T18:23:39.608Z,1.52
2023-05-05T18:26:06.715Z,1.45
2023-05-05T18:28:33.170Z,0.87
2023-05-05T18:30:59.730Z,2.28
2023-05-05T18:33:26.530Z,1.30
2023-05-05T18:35:52.950Z,1.02
2023-05-05T18:38:21.709Z,3.17
2023-05-05T18:40:55.471Z,0.93
2023-05-05T18:43:21.947Z,1.13
2023-05-05T18:45:48.731Z,2.85
2023-05-05T18:48:15.298Z,1.48
2023-05-05T18:50:41.824Z,2.83
2023-05-05T18:53:10.685Z,1.10
2023-05-05T18:55:37.296Z,0.80
2023-05-05T18:58:03.749Z,0.65
2023-05-05T19:00:30.227Z,1.20
2023-05-05T19:02:56.785Z,1.75
2023-05-05T19:05:23.507Z,2.07
2023-05-05T19:07:50.086Z,1.17
2023-05-05T19:10:16.699Z,1.42
2023-05-05T19:12:43.191Z,1.60
2023-05-05T19:15:10.325Z,1.17
2023-05-05T19:17:37.044Z,1.87
2023-05-05T19:20:03.809Z,3.15
2023-05-05T19:22:30.451Z,2.33
2023-05-05T19:24:56.922Z,7.28
2023-05-05T19:27:23.429Z,2.65
2023-05-05T19:29:52.486Z,2.00
2023-05-05T19:32:21.357Z,2.78
2023-05-05T19:34:48.168Z,2.05
2023-05-05T19:37:14.766Z,1.92
2023-05-05T19:39:44.200Z,2.13
2023-05-05T19:42:10.796Z,2.97
2023-05-05T19:44:37.262Z,2.72
2023-05-05T19:47:04.778Z,5.07
2023-05-05T19:49:31.419Z,1.45
2023-05-05T19:52:01.036Z,1.60
2023-05-05T19:54:27.859Z,3.57
2023-05-05T19:56:56.646Z,2.17
2023-05-05T19:59:23.952Z,5.25
2023-05-05T20:01:50.536Z,2.00
2023-05-05T20:04:17.065Z,2.92
2023-05-05T20:06:43.614Z,1.63
2023-05-05T20:09:10.113Z,2.67
2023-05-05T20:11:36.871Z,1.15
2023-05-05T20:14:03.526Z,2.70
2023-05-05T20:16:30.114Z,1.92
2023-05-05T20:18:56.777Z,1.80
2023-05-05T20:21:23.218Z,1.30
2023-05-05T20:23:49.801Z,2.20
2023-05-05T20:26:17.328Z,1.83
2023-05-05T20:28:45.687Z,1.83
2023-05-05T20:31:14.383Z,4.20
2023-05-05T20:33:40.904Z,1.98
2023-05-05T20:36:07.717Z,2.17
2023-05-05T20:38:34.395Z,2.10
2023-05-05T20:41:00.916Z,3.33
2023-05-05T20:43:27.651Z,3.33
2023-05-05T20:45:55.356Z,4.07
2023-05-05T20:48:21.990Z,3.03
2023-05-05T20:50:48.633Z,3.40
2023-05-05T20:53:18.797Z,3.78
2023-05-05T20:55:45.868Z,3.30
2023-05-05T20:58:12.554Z,1.55
2023-05-05T21:00:39.240Z,4.57
2023-05-05T21:03:06.063Z,1.45
2023-05-05T21:05:36.050Z,2.33
2023-05-05T21:08:02.661Z,1.37
2023-05-05T21:10:29.214Z,1.88
2023-05-05T21:12:56.069Z,1.98
2023-05-05T21:15:22.940Z,1.45
2023-05-05T21:17:50.626Z,2.03
2023-05-05T21:20:18.629Z,1.90
2023-05-05T21:22:45.993Z,3.22
2023-05-05T21:25:17.794Z,3.78
2023-05-05T21:27:44.434Z,3.97
2023-05-05T21:30:11.715Z,2.30
2023-05-05T21:32:39.481Z,1.83
2023-05-05T21:35:08.175Z,1.77
2023-05-05T21:37:36.935Z,2.25
2023-05-05T21:40:03.792Z,3.78
2023-05-05T21:42:31.034Z,3.17
2023-05-05T21:44:57.507Z,3.17
2023-05-05T21:50:12.954Z,3.20
2023-05-05T21:53:03.164Z,3.85
2023-05-05T21:58:50.022Z,3.27
2023-05-05T22:01:16.474Z,2.60
2023-05-05T22:03:43.872Z,3.25
2023-05-05T22:06:12.732Z,3.45
2023-05-05T22:08:39.168Z,5.28
2023-05-05T22:11:06.669Z,3.17
2023-05-05T22:13:33.210Z,4.18
2023-05-05T22:15:59.652Z,6.85
2023-05-05T22:18:26.272Z,2.97
2023-05-05T22:20:53.008Z,6.53
2023-05-05T22:23:19.769Z,3.23
2023-05-05T22:25:46.760Z,2.65
2023-05-05T22:28:13.472Z,6.25
2023-05-05T22:30:40.278Z,3.97
2023-05-05T22:33:07.301Z,2.47
2023-05-05T22:35:34.222Z,5.97
2023-05-05T22:38:01.543Z,3.13
2023-05-05T22:40:28.086Z,2.95
2023-05-05T22:42:54.606Z,2.80
2023-05-05T22:45:22.286Z,3.75
2023-05-05T22:47:49.837Z,4.60
2023-05-05T22:50:16.468Z,5.15
2023-05-05T22:52:42.987Z,3.50
2023-05-05T22:55:09.952Z,2.50
2023-05-05T22:57:36.874Z,3.35
2023-05-05T23:00:05.161Z,5.33
2023-05-05T23:02:31.662Z,2.33
2023-05-05T23:04:58.097Z,3.60
2023-05-05T23:07:24.556Z,2.60
2023-05-05T23:09:50.977Z,2.67
2023-05-05T23:12:17.738Z,5.37
2023-05-05T23:14:44.367Z,3.60
2023-05-05T23:17:11.327Z,3.53
2023-05-05T23:19:38.086Z,4.90
2023-05-05T23:22:04.844Z,3.85
2023-05-05T23:24:31.598Z,3.87
2023-05-05T23:26:59.587Z,4.82
2023-05-05T23:29:29.616Z,3.67
2023-05-05T23:31:56.947Z,7.90
2023-05-05T23:34:23.586Z,6.65
2023-05-05T23:36:50.041Z,5.30
2023-05-05T23:39:16.556Z,6.65
2023-05-05T23:41:42.978Z,7.35
2023-05-05T23:44:09.447Z,8.43
2023-05-05T23:46:35.887Z,7.47
2023-05-05T23:49:02.410Z,5.77
2023-05-05T23:51:29.084Z,5.20
2023-05-05T23:53:57.355Z,7.63
2023-05-05T23:56:24.440Z,3.95
2023-05-05T23:58:52.385Z,4.45
